Latest Weather Observations for Ballan (CFA)

IDV60801

Issued at 11:52 pm EDT Thursday 6 October 2022 (issued every 10 minutes, with the page automatically refreshed every 10 minutes)

About weather observations | Map of weather stations | Latest weather observations for VIC | Other Formats
Station Details ID: 250137 Name: PORTABLE VIC AWS 8 (CFA) Lat: -37.62 Lon: 144.24 Height: 518.0 m

Portable automatic weather stations (PAWS) are operated by other organisations, such as Fire and Emergency Services, and are included here by agreement. Portable stations may be deployed to a location for a short period and their location may be subject to change without notice. Wind observations from these stations are provided from heights of either three (3) or ten (10) metres above ground level (AGL).

Data from the previous 72 hours. | See also: Recent months for locations in Victoria
Date/Time
EDT
Temp
°C
App
Temp
°C
Dew
Point
°C
Rel
Hum
%
Delta-T
°C
Wind Press
QNH
hPa
Press
MSL
hPa
Rain since
9am
mm
Dir  Spd
km/h
Gust
km/h
Spd
kts
Gust
kts
06/11:40pm 13.7 11.4 12.9 95 0.4 NW 17 19 9 10 1013.0 - 5.0
06/11:30pm 13.7 11.8 12.9 95 0.4 NW 15 17 8 9 1013.2 - 5.0
06/11:20pm 13.7 11.4 12.9 95 0.4 NW 17 19 9 10 1013.2 - 5.0
06/11:10pm 13.6 11.7 13.0 96 0.3 NW 15 15 8 8 1013.3 - 5.0
06/11:00pm 13.7 12.2 13.0 95 0.4 NW 13 15 7 8 1013.3 - 5.0
06/10:50pm 13.7 12.2 13.1 96 0.3 NNW 13 17 7 9 1013.4 - 5.0
06/10:40pm 13.7 12.2 13.1 96 0.3 NNW 13 17 7 9 1013.5 - 5.0
06/10:30pm 13.8 12.3 13.1 96 0.4 NNW 13 13 7 7 1013.6 - 4.8
06/10:20pm 13.9 13.2 13.3 96 0.3 NW 9 11 5 6 1013.7 - 4.6
06/10:10pm 14.0 13.0 13.3 96 0.4 NW 11 13 6 7 1013.7 - 4.4
06/10:00pm 14.1 12.7 13.3 95 0.5 WNW 13 15 7 8 1013.7 - 4.0
06/09:50pm 14.2 12.4 13.3 94 0.5 NW 15 19 8 10 1013.8 - 3.8
06/09:40pm 14.2 11.6 13.3 94 0.5 NNW 19 24 10 13 1013.6 - 3.2
06/09:30pm 14.2 11.4 13.2 94 0.6 N 20 22 11 12 1013.5 - 2.4
06/09:20pm 14.3 12.1 13.2 93 0.6 N 17 20 9 11 1013.3 - 1.6
06/09:10pm 14.4 11.8 13.2 92 0.7 N 19 24 10 13 1013.2 - 0.8
06/09:00pm 14.6 11.0 13.1 91 0.9 N 24 30 13 16 1013.2 - 0.4
06/08:50pm 14.7 10.7 13.0 89 1.0 N 26 32 14 17 1013.2 - 0.0
06/08:40pm 14.5 11.2 12.9 90 0.9 N 22 28 12 15 1012.7 - 0.0
06/08:30pm 14.4 10.4 13.0 91 0.8 N 26 33 14 18 1012.3 - 0.0
06/08:20pm 14.5 8.8 13.0 91 0.8 N 35 39 19 21 1012.2 - 0.0
06/08:10pm 14.5 9.4 13.0 91 0.8 N 32 37 17 20 1012.2 - 0.0
06/08:00pm 14.6 10.2 12.9 89 1.0 N 28 35 15 19 1012.4 - 0.0
06/07:50pm 14.5 10.4 12.8 89 1.0 N 26 30 14 16 1012.2 - 0.0
06/07:40pm 14.5 8.7 12.8 89 1.0 N 35 41 19 22 1012.4 - 0.0
06/07:30pm 14.3 8.9 12.7 90 0.9 N 33 41 18 22 1012.3 - 0.0
06/07:20pm 14.5 8.4 12.9 90 0.9 N 37 46 20 25 1011.6 - 0.0
06/07:10pm 14.5 7.6 12.9 90 0.9 N 41 44 22 24 1011.8 - 0.0
06/07:00pm 14.6 9.4 12.9 89 1.0 N 32 37 17 20 1011.8 - 0.0
06/06:50pm 14.6 11.3 12.9 89 1.0 N 22 28 12 15 1012.1 - 0.0
06/06:40pm 14.6 11.0 12.9 89 1.0 N 24 28 13 15 1012.2 - 0.0
06/06:30pm 14.7 10.3 12.8 88 1.1 N 28 32 15 17 1012.3 - 0.0
06/06:20pm 14.7 9.8 12.7 88 1.1 N 30 35 16 19 1012.3 - 0.0
06/06:10pm 14.5 10.0 12.6 88 1.1 N 28 37 15 20 1012.2 - 0.0
06/06:00pm 14.5 10.4 12.6 88 1.1 NNE 26 32 14 17 1012.3 - 0.0
06/05:50pm 14.5 10.0 12.6 88 1.1 N 28 33 15 18 1012.4 - 0.0
06/05:40pm 14.4 9.9 12.7 89 1.0 N 28 32 15 17 1012.7 - 0.0
06/05:30pm 14.5 10.4 12.6 88 1.1 NNE 26 32 14 17 1012.5 - 0.0
06/05:20pm 14.6 10.4 12.5 87 1.2 N 26 30 14 16 1012.7 - 0.0
06/05:10pm 14.8 11.4 12.6 87 1.2 N 22 26 12 14 1012.9 - 0.0
06/05:00pm 15.2 10.8 12.8 85 1.4 N 28 32 15 17 1013.0 - 0.0
06/04:50pm 15.3 11.2 12.6 84 1.5 N 26 32 14 17 1013.0 - 0.0
06/04:40pm 15.4 10.5 12.6 83 1.6 N 30 33 16 18 1013.2 - 0.0
06/04:30pm 16.1 10.9 12.7 80 1.9 N 32 41 17 22 1013.0 - 0.0
06/04:20pm 16.2 10.8 12.8 80 1.9 N 33 39 18 21 1013.0 - 0.0
06/04:10pm 16.3 11.5 12.8 80 2.0 N 30 35 16 19 1013.2 - 0.0
06/04:00pm 15.6 10.3 12.4 81 1.8 N 32 35 17 19 1013.5 - 0.0
06/03:50pm 16.0 11.1 12.6 80 1.9 N 30 33 16 18 1013.8 - 0.0
06/03:40pm 16.2 12.5 12.6 79 2.0 N 24 28 13 15 1014.1 - 0.0
06/03:30pm 16.1 12.8 12.7 80 1.9 N 22 28 12 15 1014.2 - 0.0
06/03:20pm 15.7 12.3 12.5 81 1.8 N 22 24 12 13 1014.3 - 0.0
06/03:10pm 15.5 11.7 12.4 82 1.7 N 24 28 13 15 1014.6 - 0.0
06/03:00pm 15.8 12.8 12.4 80 1.9 N 20 26 11 14 1014.7 - 0.0
06/02:50pm 15.8 11.3 12.5 81 1.9 N 28 32 15 17 1014.8 - 0.0
06/02:40pm 16.6 11.7 12.5 77 2.3 N 30 33 16 18 1014.7 - 0.0
06/02:30pm 16.6 12.5 12.7 78 2.2 N 26 28 14 15 1014.9 - 0.0
06/02:20pm 16.7 13.6 13.3 80 2.0 N 22 28 12 15 1015.1 - 0.0
06/02:10pm 16.2 13.4 13.2 82 1.7 N 20 24 11 13 1015.3 - 0.0
06/02:00pm 16.2 12.5 12.8 80 1.9 N 24 32 13 17 1015.4 - 0.0
06/01:50pm 16.5 13.6 12.8 79 2.1 N 20 24 11 13 1015.6 - 0.0
06/01:40pm 15.8 11.2 12.2 79 2.0 N 28 30 15 16 1015.5 - 0.0
06/01:30pm 15.9 11.6 12.1 78 2.1 N 26 30 14 16 1015.6 - 0.0
06/01:20pm 15.5 11.2 11.9 79 2.0 N 26 32 14 17 1015.7 - 0.0
06/01:10pm 15.8 11.8 11.9 77 2.2 N 24 30 13 16 1015.9 - 0.0
06/01:00pm 15.7 10.6 11.9 78 2.1 N 30 33 16 18 1015.9 - 0.0
06/12:50pm 16.0 10.5 11.9 76 2.3 N 32 35 17 19 1015.9 - 0.0
06/12:40pm 15.7 10.2 11.8 77 2.2 N 32 35 17 19 1015.9 - 0.0
06/12:30pm 15.9 10.4 12.0 77 2.2 N 32 33 17 18 1015.8 - 0.0
06/12:20pm 15.6 9.1 11.8 78 2.1 N 37 43 20 23 1015.9 - 0.0
06/12:10pm 16.1 11.4 11.9 76 2.3 N 28 41 15 22 1015.9 - 0.0
06/12:00pm 16.2 11.9 12.0 76 2.4 N 26 30 14 16 1016.3 - 0.0
06/11:50am 16.0 12.4 11.9 76 2.3 N 22 26 12 14 1016.5 - 0.0
06/11:40am 15.2 11.8 11.4 78 2.1 N 20 26 11 14 1016.5 - 0.0
06/11:30am 15.2 10.7 11.3 77 2.1 N 26 33 14 18 1016.7 - 0.0
06/11:20am 15.2 11.0 11.1 76 2.2 N 24 32 13 17 1016.6 - 0.0
06/11:10am 14.9 11.2 11.4 79 1.9 N 22 26 12 14 1016.7 - 0.0
06/11:00am 14.6 10.8 11.3 80 1.8 N 22 28 12 15 1016.9 - 0.0
06/10:50am 14.8 10.8 11.7 82 1.7 N 24 28 13 15 1017.0 - 0.0
06/10:40am 14.1 9.4 10.5 79 1.9 N 26 28 14 15 1017.1 - 0.0
06/10:30am 13.7 9.4 10.7 82 1.6 N 24 30 13 16 1017.1 - 0.0
06/10:20am 13.6 8.6 10.8 83 1.5 N 28 32 15 17 1017.2 - 0.0
06/10:10am 13.8 10.1 10.3 79 1.9 N 20 28 11 15 1017.1 - 0.0
06/10:00am 13.9 9.9 10.6 80 1.8 N 22 26 12 14 1017.1 - 0.0
06/09:50am 13.9 9.9 10.4 79 1.9 N 22 24 12 13 1017.1 - 0.0
06/09:40am 13.8 9.5 10.7 81 1.7 N 24 30 13 16 1017.2 - 0.0
06/09:30am 13.2 8.7 10.2 82 1.6 N 24 26 13 14 1017.1 - 0.0
06/09:20am 13.6 9.9 10.2 80 1.8 N 20 24 11 13 1017.1 - 0.0
06/09:10am 13.4 9.8 10.5 82 1.6 N 20 26 11 14 1017.2 - 0.0
06/09:00am 13.1 9.4 10.2 82 1.5 N 20 24 11 13 1017.3 - 8.4
06/08:50am 12.6 9.4 10.0 84 1.4 N 17 20 9 11 1017.3 - 8.4
06/08:40am 12.1 8.5 9.7 85 1.3 N 19 20 10 11 1017.2 - 8.4
06/08:30am 12.3 8.6 9.4 82 1.5 N 19 22 10 12 1017.2 - 8.4
06/08:20am 12.3 9.1 9.8 85 1.3 N 17 20 9 11 1017.2 - 8.4
06/08:10am 11.7 8.3 9.1 84 1.3 N 17 22 9 12 1017.1 - 8.4
06/08:00am 11.2 7.8 9.1 87 1.1 N 17 20 9 11 1017.1 - 8.4
06/07:50am 11.1 7.3 9.1 87 1.0 N 19 24 10 13 1016.9 - 8.4
06/07:40am 11.1 6.7 8.9 86 1.1 NNE 22 28 12 15 1016.7 - 8.4
06/07:30am 10.6 6.7 8.8 89 0.9 N 19 24 10 13 1016.6 - 8.4
06/07:20am 10.2 6.3 8.6 90 0.8 NNE 19 20 10 11 1016.6 - 8.4
06/07:10am 10.1 6.2 8.5 90 0.8 NNE 19 22 10 12 1016.6 - 8.4
06/07:00am 10.1 6.0 8.6 90 0.8 NNE 20 24 11 13 1016.4 - 8.4
06/06:50am 10.2 5.7 8.6 90 0.8 NNE 22 26 12 14 1016.4 - 8.4
06/06:40am 10.2 6.1 8.6 90 0.8 NNE 20 24 11 13 1016.5 - 8.4
06/06:30am 10.4 6.5 8.7 89 0.9 NNE 19 24 10 13 1016.6 - 8.4
06/06:20am 10.4 6.5 8.7 89 0.9 NNE 19 24 10 13 1016.7 - 8.4
06/06:10am 10.4 6.5 8.5 88 1.0 NNE 19 24 10 13 1016.6 - 8.4
06/06:00am 10.4 6.9 8.7 89 0.9 NNE 17 20 9 11 1016.7 - 8.4
06/05:50am 10.3 7.1 8.5 89 0.9 NNE 15 22 8 12 1016.7 - 8.4
06/05:40am 10.2 7.0 8.6 90 0.8 NNE 15 19 8 10 1016.8 - 8.4
06/05:30am 10.1 7.0 8.7 91 0.7 NNE 15 17 8 9 1016.7 - 8.4
06/05:20am 10.1 6.6 8.7 91 0.7 NNE 17 20 9 11 1016.4 - 8.4
06/05:10am 10.1 6.2 8.6 90 0.8 NNE 19 20 10 11 1016.4 - 8.4
06/05:00am 10.2 5.7 8.6 90 0.8 NNE 22 26 12 14 1016.5 - 8.4
06/04:50am 10.2 5.7 8.6 90 0.8 NNE 22 28 12 15 1016.4 - 8.4
06/04:40am 10.2 5.7 8.6 90 0.8 NNE 22 26 12 14 1016.5 - 8.4
06/04:30am 10.2 6.1 8.6 90 0.8 NNE 20 26 11 14 1016.5 - 8.4
06/04:20am 10.2 5.7 8.5 89 0.9 NNE 22 28 12 15 1016.6 - 8.4
06/04:10am 10.2 5.7 8.6 90 0.8 NE 22 28 12 15 1016.7 - 8.4
06/04:00am 10.3 5.1 8.7 90 0.8 NNE 26 32 14 17 1016.8 - 8.4
06/03:50am 10.2 5.7 8.7 90 0.8 NE 22 26 12 14 1016.9 - 8.4
06/03:40am 9.9 6.1 9.0 94 0.5 NE 19 22 10 12 1016.9 - 8.4
06/03:30am 9.7 6.7 9.2 97 0.3 ENE 15 19 8 10 1017.1 - 8.4
06/03:20am 9.6 7.0 9.2 97 0.2 ENE 13 19 7 10 1017.2 - 8.4
06/03:10am 9.7 7.1 9.2 97 0.3 ENE 13 19 7 10 1017.4 - 8.4
06/03:00am 9.6 7.0 9.2 97 0.2 ENE 13 19 7 10 1017.4 - 8.4
06/02:50am 9.7 6.7 9.2 97 0.3 NE 15 17 8 9 1017.5 - 8.4
06/02:40am 9.7 6.7 9.2 97 0.3 ENE 15 17 8 9 1017.5 - 8.4
06/02:30am 9.6 6.2 9.2 97 0.2 ENE 17 19 9 10 1017.7 - 8.4
06/02:20am 9.7 6.3 9.2 97 0.3 ENE 17 20 9 11 1017.7 - 8.4
06/02:10am 9.8 6.4 9.2 96 0.3 ENE 17 22 9 12 1017.9 - 8.4
06/02:00am 9.9 6.1 9.1 95 0.4 NE 19 22 10 12 1017.9 - 8.4
06/01:50am 9.9 6.1 9.2 95 0.4 NE 19 20 10 11 1018.1 - 8.4
06/01:40am 9.7 5.9 9.2 97 0.3 ENE 19 20 10 11 1018.2 - 8.4
06/01:30am 9.8 6.0 9.2 96 0.3 ENE 19 22 10 12 1018.3 - 8.4
06/01:20am 10.0 5.6 9.1 94 0.5 NE 22 28 12 15 1018.5 - 8.4
06/01:10am 9.9 6.2 9.3 96 0.3 ENE 19 24 10 13 1018.6 - 8.4
06/01:00am 9.8 6.4 9.3 97 0.3 ENE 17 20 9 11 1018.6 - 8.4
06/12:50am 10.0 6.1 9.3 95 0.4 NE 20 24 11 13 1018.8 - 8.4
06/12:40am 10.0 5.3 9.3 95 0.4 NE 24 28 13 15 1018.6 - 8.4
06/12:30am 9.8 5.5 9.4 97 0.2 ENE 22 26 12 14 1018.7 - 8.2
06/12:20am 9.8 6.1 9.4 97 0.2 ENE 19 20 10 11 1018.9 - 8.2
06/12:10am 9.9 6.0 9.5 97 0.2 ENE 20 28 11 15 1019.1 - 8.2
06/12:00am 9.8 5.9 9.6 99 0.1 ENE 20 24 11 13 1019.2 - 8.2
 
Date/Time
EDT
Temp
°C
App
Temp
°C
Dew
Point
°C
Rel
Hum
%
Delta-T
°C
Wind Press
QNH
hPa
Press
MSL
hPa
Rain since
9am
mm
Dir  Spd
km/h
Gust
km/h
Spd
kts
Gust
kts
05/11:50pm 9.7 6.0 9.6 99 0.1 ENE 19 22 10 12 1019.2 - 8.2
05/11:40pm 9.7 6.0 9.5 99 0.1 ENE 19 26 10 14 1019.2 - 8.2
05/11:30pm 9.7 6.0 9.5 99 0.1 ENE 19 24 10 13 1019.3 - 8.0
05/11:20pm 9.7 5.5 9.6 99 0.1 ENE 22 24 12 13 1019.2 - 8.0
05/11:10pm 9.7 6.0 9.6 99 0.1 ENE 19 22 10 12 1019.4 - 7.8
05/11:00pm 9.8 5.6 9.6 99 0.1 ENE 22 26 12 14 1019.5 - 7.6
05/10:50pm 9.7 5.8 9.6 99 0.1 ENE 20 22 11 12 1019.5 - 7.6
05/10:40pm 9.8 5.9 9.6 99 0.1 E 20 24 11 13 1019.5 - 7.4
05/10:30pm 9.8 5.9 9.6 99 0.1 ENE 20 24 11 13 1019.6 - 7.4
05/10:20pm 9.8 6.5 9.6 99 0.1 ENE 17 22 9 12 1019.7 - 7.4
05/10:10pm 9.8 6.1 9.6 99 0.1 E 19 22 10 12 1019.8 - 7.2
05/10:00pm 9.8 5.9 9.6 99 0.1 E 20 22 11 12 1019.8 - 7.2
05/09:50pm 9.8 6.1 9.6 99 0.1 E 19 24 10 13 1019.8 - 7.0
05/09:40pm 9.8 6.1 9.6 99 0.1 E 19 22 10 12 1019.8 - 7.0
05/09:30pm 9.9 6.2 9.6 98 0.2 E 19 20 10 11 1019.8 - 7.0
05/09:20pm 9.9 6.1 9.7 99 0.1 ENE 20 26 11 14 1019.8 - 7.0
05/09:10pm 10.0 6.2 9.7 98 0.2 ENE 20 24 11 13 1019.8 - 6.8
05/09:00pm 10.0 5.4 9.8 99 0.1 ENE 24 26 13 14 1019.7 - 6.6
05/08:50pm 10.1 5.9 9.8 98 0.2 ENE 22 24 12 13 1019.7 - 6.4
05/08:40pm 10.1 5.9 9.8 98 0.2 ENE 22 24 12 13 1019.6 - 6.4
05/08:30pm 10.1 5.9 9.7 97 0.2 ENE 22 26 12 14 1019.6 - 6.2
05/08:20pm 10.1 6.3 9.8 98 0.2 ENE 20 24 11 13 1019.6 - 6.2
05/08:10pm 10.2 6.6 9.8 97 0.2 ENE 19 24 10 13 1019.6 - 6.0
05/08:00pm 10.2 6.6 9.9 98 0.2 ENE 19 22 10 12 1019.6 - 5.8
05/07:50pm 10.3 6.1 9.9 97 0.2 ENE 22 30 12 16 1019.5 - 5.6
05/07:40pm 10.3 5.8 9.9 97 0.2 ENE 24 26 13 14 1019.5 - 5.6
05/07:30pm 10.3 6.1 9.9 97 0.2 ENE 22 28 12 15 1019.4 - 5.6
05/07:20pm 10.3 6.1 9.9 97 0.2 ENE 22 26 12 14 1019.4 - 5.4
05/07:10pm 10.3 5.8 9.9 97 0.2 ENE 24 28 13 15 1019.4 - 5.4
05/07:00pm 10.3 6.1 9.9 97 0.2 ENE 22 24 12 13 1019.4 - 5.4
05/06:50pm 10.3 6.5 9.9 97 0.2 ENE 20 24 11 13 1019.4 - 5.2
05/06:40pm 10.3 6.5 9.9 97 0.2 ENE 20 26 11 14 1019.4 - 5.2
05/06:30pm 10.4 6.7 10.0 97 0.2 ENE 20 24 11 13 1019.4 - 5.2
05/06:20pm 10.4 6.3 10.1 98 0.2 ENE 22 24 12 13 1019.5 - 5.2
05/06:10pm 10.4 6.3 10.1 98 0.2 ENE 22 26 12 14 1019.4 - 5.0
05/06:00pm 10.4 5.9 10.2 99 0.1 ENE 24 28 13 15 1019.3 - 4.6
05/05:50pm 10.5 6.1 10.3 99 0.1 ENE 24 30 13 16 1019.3 - 4.6
05/05:40pm 10.5 6.1 10.3 99 0.1 ENE 24 28 13 15 1019.2 - 4.4
05/05:30pm 10.4 6.0 10.3 99 0.1 ENE 24 30 13 16 1019.2 - 4.4
05/05:20pm 10.4 6.7 10.3 99 0.1 E 20 26 11 14 1019.2 - 4.4
05/05:10pm 10.4 6.7 10.3 99 0.1 E 20 20 11 11 1019.3 - 4.2
05/05:00pm 10.4 6.7 10.3 99 0.1 E 20 26 11 14 1019.3 - 4.0
05/04:50pm 10.4 6.3 10.2 99 0.1 E 22 24 12 13 1019.4 - 3.8
05/04:40pm 10.3 6.6 10.2 99 0.1 E 20 22 11 12 1019.4 - 3.6
05/04:30pm 10.2 6.1 10.1 99 0.1 E 22 26 12 14 1019.6 - 3.4
05/04:20pm 10.2 6.5 10.0 99 0.1 E 20 24 11 13 1019.6 - 3.0
05/04:10pm 10.2 6.1 10.0 99 0.1 E 22 26 12 14 1019.6 - 2.6
05/04:00pm 10.2 6.1 10.1 99 0.1 E 22 26 12 14 1019.7 - 2.2
05/03:50pm 10.2 5.7 10.0 99 0.1 E 24 26 13 14 1019.8 - 2.0
05/03:40pm 10.2 6.1 10.0 99 0.1 E 22 28 12 15 1019.8 - 1.6
05/03:30pm 10.2 6.0 9.9 98 0.2 E 22 24 12 13 1020.0 - 1.6
05/03:20pm 10.2 6.4 9.9 98 0.2 E 20 24 11 13 1020.1 - 1.4
05/03:10pm 10.1 6.3 9.9 99 0.1 E 20 24 11 13 1020.2 - 1.4
05/03:00pm 10.0 6.2 9.7 98 0.2 E 20 24 11 13 1020.3 - 1.2
05/02:50pm 10.1 6.5 9.8 98 0.2 E 19 22 10 12 1020.5 - 1.2
05/02:40pm 10.1 6.3 9.8 98 0.2 E 20 22 11 12 1020.6 - 1.0
05/02:30pm 10.2 6.4 9.9 98 0.2 E 20 24 11 13 1020.6 - 1.0
05/02:20pm 10.2 6.0 9.9 98 0.2 E 22 24 12 13 1020.8 - 1.0
05/02:10pm 10.2 6.0 9.9 98 0.2 E 22 24 12 13 1020.9 - 1.0
05/02:00pm 10.0 6.2 9.7 98 0.2 E 20 24 11 13 1020.9 - 1.0
05/01:50pm 9.7 5.8 9.4 98 0.2 E 20 22 11 12 1021.2 - 0.8
05/01:40pm 9.8 6.1 9.4 97 0.2 E 19 20 10 11 1021.3 - 0.8
05/01:30pm 9.7 5.8 9.4 98 0.2 E 20 22 11 12 1021.4 - 0.8
05/01:20pm 9.8 5.9 9.4 97 0.2 E 20 22 11 12 1021.5 - 0.8
05/01:10pm 10.0 6.3 9.5 97 0.3 E 19 20 10 11 1021.5 - 0.8
05/01:00pm 10.0 6.7 9.4 96 0.3 E 17 19 9 10 1021.6 - 0.8
05/12:50pm 9.9 6.2 9.3 96 0.3 E 19 20 10 11 1021.7 - 0.8
05/12:40pm 9.7 6.3 9.2 97 0.3 E 17 20 9 11 1021.9 - 0.8
05/12:30pm 9.4 6.3 8.9 97 0.3 E 15 17 8 9 1021.9 - 0.6
05/12:20pm 9.1 5.9 8.6 97 0.3 E 15 15 8 8 1022.1 - 0.6
05/12:10pm 9.0 6.2 8.4 96 0.3 ESE 13 15 7 8 1022.1 - 0.4
05/12:00pm 8.9 5.7 8.3 96 0.3 E 15 17 8 9 1022.2 - 0.2
05/11:50am 9.0 6.1 8.3 95 0.3 E 13 15 7 8 1022.3 - 0.2
05/11:40am 9.0 5.7 8.2 95 0.4 E 15 15 8 8 1022.4 - 0.2
05/11:30am 8.9 6.0 8.1 95 0.4 E 13 15 7 8 1022.5 - 0.2
05/11:20am 8.8 5.8 7.8 93 0.5 E 13 15 7 8 1022.5 - 0.0
05/11:10am 8.8 5.8 7.8 93 0.5 E 13 15 7 8 1022.6 - 0.0
05/11:00am 8.7 5.3 7.6 93 0.5 E 15 17 8 9 1022.7 - 0.0
05/10:50am 8.7 5.3 7.5 92 0.6 - 15 17 8 9 1022.8 - 0.0
05/10:30am 8.6 5.5 7.4 92 0.6 E 13 13 7 7 1023.0 - 0.0
05/10:20am 8.6 5.9 7.5 93 0.5 E 11 13 6 7 1023.1 - 0.0
05/10:10am 8.6 6.3 7.6 93 0.5 E 9 11 5 6 1023.1 - 0.0
05/10:00am 8.6 6.4 8.0 96 0.3 E 9 9 5 5 1023.1 - 0.0
05/09:50am 8.4 5.8 7.8 96 0.3 E 11 13 6 7 1023.2 - 0.0
05/09:40am 8.4 5.9 8.0 97 0.2 E 11 11 6 6 1023.3 - 0.0
05/09:30am 8.3 5.8 8.0 98 0.1 - 11 11 6 6 1023.3 - 0.0
05/09:20am 8.2 5.6 7.9 98 0.1 E 11 13 6 7 1023.4 - 0.0
05/09:00am 8.1 5.5 7.9 99 0.1 E 11 13 6 7 1023.3 - 0.0
05/08:50am 8.0 5.4 7.8 99 0.1 E 11 11 6 6 1023.3 - 0.0
05/08:40am 7.9 5.6 7.6 98 0.1 E 9 11 5 6 1023.3 - 0.0
05/08:30am 7.7 5.4 7.5 99 0.1 E 9 9 5 5 1023.3 - 0.0
05/08:20am 7.6 5.3 7.3 98 0.1 E 9 11 5 6 1023.3 - 0.0
05/08:10am 7.5 4.8 7.2 98 0.1 E 11 11 6 6 1023.2 - 0.0
05/08:00am 7.3 4.9 7.0 98 0.1 E 9 9 5 5 1023.4 - 0.0
05/07:50am 7.1 4.7 6.8 98 0.1 E 9 9 5 5 1023.2 - 0.0
05/07:40am 6.9 4.8 6.6 98 0.1 E 7 9 4 5 1023.2 - 0.0
05/07:30am 6.8 4.7 6.5 98 0.1 E 7 9 4 5 1023.1 - 0.0
05/07:20am 6.8 4.3 6.5 98 0.1 E 9 9 5 5 1022.9 - 0.0
05/07:10am 6.7 4.2 6.4 98 0.1 E 9 11 5 6 1022.8 - 0.0
05/07:00am 6.5 3.9 6.3 99 0.1 E 9 9 5 5 1022.7 - 0.0
05/06:50am 6.3 3.7 6.2 99 0.0 E 9 9 5 5 1022.6 - 0.0
05/06:40am 6.3 3.7 6.1 99 0.1 E 9 9 5 5 1022.4 - 0.0
05/06:30am 6.2 4.0 6.1 99 0.0 E 7 9 4 5 1022.4 - 0.0
05/06:20am 6.0 3.7 5.9 99 0.0 E 7 7 4 4 1022.5 - 0.0
05/06:10am 5.9 3.6 5.8 99 0.0 E 7 9 4 5 1022.4 - 0.0
05/06:00am 5.8 3.5 5.8 100 0.0 E 7 9 4 5 1022.3 - 0.0
05/05:50am 5.8 3.7 5.7 99 0.0 ENE 6 6 3 3 1022.4 - 0.0
05/05:40am 5.8 3.7 5.7 99 0.0 E 6 7 3 4 1022.3 - 0.0
05/05:30am 5.8 3.1 5.7 99 0.0 E 9 9 5 5 1022.2 - 0.0
05/05:20am 5.9 3.2 5.8 99 0.0 E 9 9 5 5 1022.2 - 0.0
05/05:10am 5.9 2.9 5.8 99 0.0 E 11 11 6 6 1022.2 - 0.0
05/05:00am 5.9 3.2 5.8 99 0.0 E 9 11 5 6 1022.2 - 0.0
05/04:50am 5.9 3.2 5.8 99 0.0 E 9 9 5 5 1022.4 - 0.0
05/04:40am 6.0 3.7 5.9 99 0.0 E 7 9 4 5 1022.3 - 0.0
05/04:30am 6.1 3.9 6.0 99 0.0 E 7 7 4 4 1022.5 - 0.0
05/04:20am 6.1 4.8 6.0 99 0.0 E 2 6 1 3 1022.5 - 0.0
05/04:10am 6.1 4.8 6.0 99 0.0 E 2 4 1 2 1022.7 - 0.0
05/04:00am 6.1 4.4 6.0 99 0.0 E 4 6 2 3 1022.5 - 0.0
05/03:50am 6.1 3.9 6.0 99 0.0 ESE 7 7 4 4 1022.4 - 0.0
05/03:40am 6.1 3.9 6.0 99 0.0 E 7 7 4 4 1022.4 - 0.0
05/03:30am 6.1 3.9 6.0 99 0.0 ESE 7 7 4 4 1022.3 - 0.0
05/03:20am 6.1 4.0 6.0 99 0.0 ESE 6 7 3 4 1022.2 - 0.0
05/03:10am 6.0 3.7 5.9 99 0.0 ESE 7 9 4 5 1022.3 - 0.0
05/03:00am 6.1 3.8 5.9 99 0.1 E 7 7 4 4 1022.3 - 0.0
05/02:50am 6.1 4.0 5.9 99 0.1 E 6 7 3 4 1022.3 - 0.0
05/02:40am 6.1 4.0 5.9 99 0.1 E 6 6 3 3 1022.4 - 0.0
05/02:30am 6.1 4.0 5.8 98 0.1 ESE 6 7 3 4 1022.6 - 0.0
05/02:20am 6.2 3.6 5.9 98 0.1 ESE 9 11 5 6 1022.6 - 0.0
05/02:10am 6.3 4.1 6.0 98 0.1 E 7 9 4 5 1022.9 - 0.0
05/02:00am 6.3 4.1 6.0 98 0.1 E 7 9 4 5 1023.0 - 0.0
05/01:50am 6.2 4.1 5.9 98 0.1 E 6 6 3 3 1023.1 - 0.0
05/01:40am 6.4 4.2 6.0 97 0.2 SE 7 7 4 4 1023.2 - 0.0
05/01:30am 6.4 4.2 6.1 98 0.1 SE 7 7 4 4 1023.1 - 0.0
05/01:20am 6.6 4.6 6.2 97 0.2 SE 6 7 3 4 1023.2 - 0.0
05/01:10am 6.7 4.5 6.3 97 0.2 - 7 11 4 6 1023.4 - 0.0
05/01:00am 6.7 3.8 6.3 97 0.2 ESE 11 13 6 7 1023.3 - 0.0
05/12:50am 6.8 3.1 6.3 97 0.2 ESE 15 17 8 9 1023.2 - 0.0
05/12:40am 7.0 3.3 6.4 96 0.3 ESE 15 17 8 9 1023.3 - 0.0
05/12:30am 7.0 3.7 6.5 97 0.2 ESE 13 17 7 9 1023.4 - 0.0
05/12:20am 7.2 4.3 6.6 96 0.3 SE 11 15 6 8 1023.5 - 0.0
05/12:10am 7.3 4.1 6.8 97 0.2 SE 13 13 7 7 1023.4 - 0.0
05/12:00am 7.4 4.2 7.0 97 0.2 SE 13 17 7 9 1023.5 - 0.0
 
Date/Time
EDT
Temp
°C
App
Temp
°C
Dew
Point
°C
Rel
Hum
%
Delta-T
°C
Wind Press
QNH
hPa
Press
MSL
hPa
Rain since
9am
mm
Dir  Spd
km/h
Gust
km/h
Spd
kts
Gust
kts
04/11:50pm 7.5 4.7 7.1 97 0.2 ESE 11 13 6 7 1023.7 - 0.0
04/11:40pm 7.4 4.2 7.0 97 0.2 ESE 13 15 7 8 1023.7 - 0.0
04/11:30pm 7.5 4.0 7.0 97 0.2 SE 15 19 8 10 1023.5 - 0.0
04/11:20pm 7.5 4.3 6.9 96 0.3 SE 13 17 7 9 1023.6 - 0.0
04/11:10pm 7.5 5.0 6.6 94 0.4 SE 9 13 5 7 1023.8 - 0.0
04/11:00pm 7.5 5.0 6.4 93 0.5 ESE 9 13 5 7 1023.7 - 0.0
04/10:50pm 7.4 4.8 6.1 91 0.6 ESE 9 11 5 6 1023.8 - 0.0
04/10:40pm 7.4 4.8 5.9 90 0.7 ESE 9 11 5 6 1023.9 - 0.0
04/10:30pm 7.3 4.3 5.8 90 0.7 E 11 13 6 7 1023.9 - 0.0
04/10:20pm 7.3 3.9 6.0 91 0.6 E 13 15 7 8 1024.1 - 0.0
04/10:10pm 7.2 3.8 5.9 91 0.6 E 13 15 7 8 1024.1 - 0.0
04/10:00pm 7.0 3.6 6.0 93 0.5 - 13 13 7 7 1024.2 - 0.0
04/09:40pm 6.4 3.3 5.7 95 0.3 E 11 13 6 7 1024.2 - 0.0
04/09:30pm 6.2 3.1 5.4 95 0.4 E 11 13 6 7 1024.3 - 0.0
04/09:20pm 6.0 2.4 5.2 95 0.4 E 13 13 7 7 1024.3 - 0.0
04/09:10pm 6.1 2.5 5.2 94 0.4 E 13 13 7 7 1024.2 - 0.0
04/09:00pm 6.4 3.2 5.3 93 0.5 E 11 13 6 7 1024.3 - 0.0
04/08:50pm 6.6 3.1 5.4 92 0.5 E 13 15 7 8 1024.2 - 0.0
04/08:40pm 6.6 3.1 5.5 93 0.5 ESE 13 15 7 8 1024.2 - 0.0
04/08:30pm 6.8 2.9 5.5 91 0.6 ESE 15 17 8 9 1024.0 - 0.0
04/08:20pm 7.0 3.2 5.6 91 0.6 ESE 15 15 8 8 1023.8 - 0.0
04/08:10pm 7.2 3.7 5.6 89 0.7 ESE 13 15 7 8 1023.7 - 0.0
04/08:00pm 7.5 4.0 5.6 88 0.9 E 13 13 7 7 1023.8 - 0.0
04/07:50pm 7.6 4.1 5.6 87 0.9 E 13 15 7 8 1023.8 - 0.0
04/07:40pm 7.8 4.3 5.6 86 1.0 ESE 13 15 7 8 1023.7 - 0.0
04/07:30pm 8.0 4.6 5.9 86 1.0 E 13 15 7 8 1023.8 - 0.0
04/07:20pm 8.1 4.7 6.1 87 0.9 ESE 13 15 7 8 1023.8 - 0.0
04/07:10pm 8.3 4.6 6.2 87 1.0 ESE 15 17 8 9 1023.8 - 0.0
04/07:00pm 8.4 4.7 6.4 87 0.9 ESE 15 17 8 9 1023.9 - 0.0
04/06:50pm 8.6 5.0 6.6 87 1.0 E 15 17 8 9 1023.8 - 0.0
04/06:40pm 8.7 5.1 6.6 87 1.0 ESE 15 19 8 10 1023.7 - 0.0
04/06:30pm 8.8 4.7 6.4 85 1.1 ESE 17 19 9 10 1023.6 - 0.0
04/06:20pm 8.9 4.9 6.6 85 1.1 ESE 17 20 9 11 1023.6 - 0.0
04/06:10pm 9.0 4.6 6.5 84 1.2 ESE 19 20 10 11 1023.5 - 0.0
04/06:00pm 9.1 4.8 6.8 85 1.1 ESE 19 20 10 11 1023.6 - 0.0
04/05:50pm 9.2 5.2 6.7 84 1.2 ESE 17 20 9 11 1023.7 - 0.0
04/05:40pm 9.1 5.2 6.9 86 1.1 ESE 17 20 9 11 1023.6 - 0.0
04/05:30pm 8.9 4.6 6.8 87 1.0 ESE 19 22 10 12 1023.6 - 0.0
04/05:20pm 9.0 4.7 6.8 86 1.1 ESE 19 20 10 11 1023.7 - 0.0
04/05:10pm 9.0 4.7 7.0 87 1.0 ESE 19 20 10 11 1023.8 - 0.0
04/05:00pm 9.0 4.7 7.2 88 0.9 ESE 19 22 10 12 1024.0 - 0.0
04/04:50pm 8.9 4.6 7.2 89 0.8 ESE 19 22 10 12 1024.1 - 0.0
04/04:40pm 8.9 4.5 7.2 89 0.8 ESE 20 24 11 13 1024.0 - 0.0
04/04:30pm 8.8 4.5 7.2 90 0.8 ESE 19 22 10 12 1024.0 - 0.0
04/04:20pm 8.7 4.5 7.3 91 0.7 ESE 19 22 10 12 1023.9 - 0.0
04/04:10pm 8.6 4.2 7.4 92 0.6 ESE 20 22 11 12 1023.9 - 0.0
04/04:00pm 8.5 4.1 7.6 94 0.4 ESE 20 22 11 12 1024.0 - 0.0
04/03:50pm 8.5 4.2 7.9 96 0.3 ESE 20 24 11 13 1024.0 - 0.0
04/03:40pm 8.7 4.7 8.2 97 0.2 ESE 19 24 10 13 1023.9 - 0.0
04/03:30pm 8.6 4.0 8.1 97 0.2 ESE 22 24 12 13 1023.9 - 0.0
04/03:20pm 8.8 4.6 8.3 97 0.2 ESE 20 24 11 13 1023.9 - 0.0
04/03:10pm 8.9 4.7 8.4 97 0.2 ESE 20 24 11 13 1023.8 - 0.0
04/03:00pm 9.1 5.2 8.5 96 0.3 ESE 19 20 10 11 1024.0 - 0.0
04/02:50pm 9.3 5.4 8.7 96 0.3 ESE 19 22 10 12 1023.8 - 0.0
04/02:40pm 9.5 5.7 8.9 96 0.3 ESE 19 20 10 11 1023.9 - 0.0
04/02:30pm 9.4 5.9 8.8 96 0.3 ESE 17 19 9 10 1024.0 - 0.0
04/02:20pm 9.2 5.1 8.7 97 0.3 ESE 20 22 11 12 1024.1 - 0.0
04/02:10pm 9.4 5.6 8.9 97 0.3 ESE 19 22 10 12 1024.1 - 0.0
04/02:00pm 9.4 5.6 8.9 97 0.3 ESE 19 22 10 12 1024.0 - 0.0
04/01:50pm 9.2 5.1 8.8 97 0.2 ESE 20 24 11 13 1024.1 - 0.0
04/01:40pm 9.5 5.7 9.1 97 0.2 ESE 19 22 10 12 1024.1 - 0.0
04/01:30pm 9.4 5.6 9.1 98 0.2 ESE 19 20 10 11 1024.2 - 0.0
04/01:20pm 9.3 5.5 9.0 98 0.2 ESE 19 20 10 11 1024.2 - 0.0
04/01:10pm 9.2 5.2 8.9 98 0.2 ESE 20 22 11 12 1024.2 - 0.0
04/01:00pm 9.3 5.2 8.8 97 0.3 ESE 20 22 11 12 1024.3 - 0.0
04/12:50pm 9.4 5.9 8.9 97 0.3 ESE 17 20 9 11 1024.4 - 0.0
04/12:40pm 9.5 5.6 8.8 95 0.4 ESE 19 22 10 12 1024.4 - 0.0
04/12:30pm 9.6 5.7 8.8 95 0.4 ESE 19 20 10 11 1024.4 - 0.0
04/12:20pm 10.0 6.6 9.0 93 0.5 E 17 19 9 10 1024.4 - 0.0
04/12:10pm 10.1 7.0 8.8 92 0.7 ESE 15 19 8 10 1024.3 - 0.0
04/12:00pm 10.0 6.5 8.6 91 0.7 ESE 17 19 9 10 1024.4 - 0.0
04/11:50am 10.1 6.5 8.3 88 0.9 ESE 17 19 9 10 1024.4 - 0.0
04/11:40am 10.3 6.8 8.7 90 0.8 ESE 17 19 9 10 1024.4 - 0.0
04/11:30am 10.7 7.2 8.8 88 1.0 E 17 19 9 10 1024.4 - 0.0
04/11:20am 10.8 7.1 8.1 83 1.4 E 17 17 9 9 1024.3 - 0.0
04/11:10am 10.9 7.6 8.2 83 1.4 E 15 20 8 11 1024.3 - 0.0
04/11:00am 10.7 7.0 8.1 84 1.3 - 17 19 9 10 1024.3 - 0.0
04/10:50am 10.7 7.2 8.6 87 1.1 ESE 17 19 9 10 1024.2 - 0.0
04/10:40am 11.5 8.1 9.0 85 1.3 E 17 19 9 10 1024.1 - 0.0
04/10:30am 11.7 8.4 7.9 77 1.9 E 15 19 8 10 1024.1 - 0.0
04/10:20am 11.5 8.0 7.4 76 2.0 - 15 19 8 10 1024.1 - 0.0
04/10:10am 11.3 7.8 7.2 76 2.0 ENE 15 17 8 9 1024.0 - 0.0
04/10:00am 11.3 7.9 7.7 78 1.8 E 15 19 8 10 1024.1 - 0.0
04/09:50am 10.7 7.4 8.1 84 1.3 ENE 15 17 8 9 1024.0 - 0.0
04/09:40am 9.7 6.3 7.8 88 0.9 ENE 15 17 8 9 1024.1 - 0.0
04/09:30am 9.4 6.1 8.2 92 0.6 ENE 15 17 8 9 1024.1 - 0.0
04/09:20am 9.2 6.4 8.5 95 0.3 E 13 15 7 8 1024.1 - 0.0
04/09:10am 8.9 5.7 8.4 97 0.2 E 15 17 8 9 1024.1 - 0.0
04/09:00am 9.0 6.6 8.5 97 0.2 E 11 15 6 8 1024.1 - 1.8
04/08:50am 9.0 6.2 8.6 97 0.2 E 13 15 7 8 1024.1 - 1.8
04/08:40am 8.9 5.7 8.6 98 0.1 E 15 19 8 10 1024.1 - 1.8
04/08:30am 8.8 5.2 8.5 98 0.1 E 17 19 9 10 1023.9 - 1.8
04/08:20am 8.8 5.6 8.6 99 0.1 E 15 17 8 9 1023.8 - 1.8
04/08:10am 8.6 6.2 8.5 99 0.0 E 11 15 6 8 1023.9 - 1.8
04/08:00am 8.7 6.3 8.5 99 0.1 E 11 15 6 8 1023.8 - 1.8
04/07:50am 8.5 5.7 8.4 99 0.0 ESE 13 15 7 8 1023.6 - 1.8
04/07:40am 8.4 5.5 8.3 99 0.0 ESE 13 17 7 9 1023.6 - 1.8
04/07:30am 8.3 5.8 8.2 99 0.0 E 11 13 6 7 1023.5 - 1.8
04/07:20am 8.1 5.2 8.1 100 0.0 E 13 17 7 9 1023.5 - 1.8
04/07:10am 8.0 5.0 7.9 99 0.0 ESE 13 17 7 9 1023.3 - 1.8
04/07:00am 8.0 5.5 8.0 100 0.0 ESE 11 13 6 7 1023.2 - 1.8
04/06:50am 8.0 5.8 7.9 99 0.0 ESE 9 15 5 8 1022.9 - 1.8
04/06:40am 7.8 5.9 7.7 99 0.0 ESE 7 7 4 4 1022.9 - 1.8
04/06:30am 7.6 5.7 7.4 99 0.1 ESE 7 9 4 5 1022.7 - 1.8
04/06:20am 7.4 5.6 7.3 99 0.0 E 6 7 3 4 1022.6 - 1.8
04/06:10am 7.5 5.5 7.3 99 0.1 E 7 9 4 5 1022.4 - 1.8
04/06:00am 7.5 5.5 7.3 99 0.1 E 7 9 4 5 1022.3 - 1.8
04/05:50am 7.1 5.1 6.9 99 0.1 E 7 7 4 4 1022.2 - 1.8
04/05:40am 6.8 4.9 6.5 98 0.1 E 6 7 3 4 1022.0 - 1.8
04/05:30am 6.8 4.9 6.5 98 0.1 ENE 6 6 3 3 1021.9 - 1.8
04/05:20am 6.7 5.1 6.4 98 0.1 ENE 4 4 2 2 1021.8 - 1.8
04/05:10am 6.8 5.2 6.5 98 0.1 ENE 4 4 2 2 1021.8 - 1.8
04/05:00am 7.0 5.5 6.6 97 0.2 E 4 4 2 2 1021.7 - 1.8
04/04:50am 7.0 5.5 6.6 97 0.2 E 4 4 2 2 1021.7 - 1.8
04/04:40am 7.1 6.0 6.7 97 0.2 ENE 2 4 1 2 1021.6 - 1.8
04/04:30am 7.2 6.1 6.7 97 0.2 NE 2 4 1 2 1021.6 - 1.8
04/04:20am 7.4 5.9 6.9 97 0.2 ENE 4 4 2 2 1021.7 - 1.8
04/04:10am 7.4 5.9 6.9 97 0.2 NE 4 6 2 3 1021.6 - 1.8
04/04:00am 7.5 6.0 7.0 97 0.2 ENE 4 6 2 3 1021.5 - 1.8
04/03:50am 7.5 5.6 6.9 96 0.3 ENE 6 6 3 3 1021.5 - 1.8
04/03:40am 7.8 6.0 7.2 96 0.3 E 6 6 3 3 1021.5 - 1.8
04/03:30am 7.9 6.5 7.2 95 0.3 E 4 4 2 2 1021.5 - 1.8
04/03:20am 8.0 7.0 7.2 95 0.4 E 2 4 1 2 1021.4 - 1.8
04/03:10am 8.2 6.8 7.2 93 0.5 ENE 4 4 2 2 1021.4 - 1.8
04/03:00am 8.3 7.3 7.3 93 0.5 NE 2 4 1 2 1021.4 - 1.8
04/02:50am 8.5 7.5 7.5 93 0.5 NNE 2 4 1 2 1021.5 - 1.8
04/02:40am 8.6 8.0 7.4 92 0.6 CALM 0 0 0 0 1021.6 - 1.8
04/02:30am 8.6 7.2 7.3 91 0.6 E 4 4 2 2 1021.7 - 1.8
04/02:20am 8.6 6.8 7.3 91 0.6 E 6 6 3 3 1021.7 - 1.8
04/02:10am 8.4 7.1 7.5 94 0.4 E 4 4 2 2 1021.8 - 1.8
04/02:00am 8.4 6.7 7.6 95 0.4 NNE 6 6 3 3 1021.6 - 1.8
04/01:50am 8.4 7.1 7.5 94 0.4 N 4 6 2 3 1021.6 - 1.8
04/01:40am 8.5 7.2 7.6 94 0.4 NNW 4 6 2 3 1021.7 - 1.8
04/01:30am 8.4 7.4 7.4 93 0.5 NNE 2 6 1 3 1021.7 - 1.8
04/01:20am 8.4 7.8 7.5 94 0.4 CALM 0 0 0 0 1021.8 - 1.8
04/01:10am 8.4 7.8 7.6 95 0.4 CALM 0 2 0 1 1021.8 - 1.8
04/01:00am 8.2 7.2 7.4 95 0.4 NNE 2 6 1 3 1021.7 - 1.8
04/12:50am 8.1 6.4 7.4 95 0.3 ENE 6 6 3 3 1021.5 - 1.8
04/12:40am 8.2 6.4 7.3 94 0.4 ENE 6 7 3 4 1021.5 - 1.8
04/12:30am 8.4 6.7 7.5 94 0.4 E 6 6 3 3 1021.4 - 1.8
04/12:20am 8.4 7.5 7.6 95 0.4 ESE 2 4 1 2 1021.4 - 1.8
04/12:10am 8.2 6.5 7.5 95 0.3 NE 6 7 3 4 1021.6 - 1.8
04/12:00am 8.0 6.1 7.4 96 0.3 NNE 7 9 4 5 1021.6 - 1.8

Other formats

Comma delimited format used in spreadsheet applications
http://www.bom.gov.au/fwo/IDV60801/IDV60801.99820.axf

JavaScript Object Notation format (JSON) in row-major order
http://www.bom.gov.au/fwo/IDV60801/IDV60801.99820.json

Data quality

Most of these data are generated automatically and are frequently updated. Quality checks on data are not normally performed. It is possible for incorrect values to appear. Refer to information at About Latest Weather Observations and please check the disclaimer before using these data.